| time (UTC) | temp F | wind direction | speed knots | gust knots | rain 1hr in | rain 24hr in | rain mn in | humidity % | barometer mb |
| 20260508094900 | 61 | 209 | 2.6 | 2.6 | 0.00 | 0.00 | 0.00 | 82 | 1013.2 |
| 20260508094357 | 61 | 212 | 0.9 | 0.9 | 0.00 | 0.00 | 0.00 | 81 | 1013.1 |
| 20260508093854 | 61 | 213 | 0.9 | 0.9 | 0.00 | 0.00 | 0.00 | 81 | 1013.1 |
| 20260508093351 | 61 | 188 | 1.7 | 1.7 | 0.00 | 0.00 | 0.00 | 81 | 1013.4 |
| 20260508092849 | 61 | 205 | 0.9 | 0.9 | 0.00 | 0.00 | 0.00 | 82 | 1013.5 |
| 20260508092346 | 61 | 194 | 0.9 | 0.9 | 0.00 | 0.00 | 0.00 | 82 | 1013.4 |
| 20260508091845 | 61 | 193 | 0.0 | 0.0 | 0.00 | 0.00 | 0.00 | 82 | 1013.3 |
| 20260508091340 | 61 | 194 | 0.0 | 0.9 | 0.00 | 0.00 | 0.00 | 82 | 1013.5 |
| 20260508090839 | 61 | 193 | 0.9 | 0.9 | 0.00 | 0.00 | 0.00 | 81 | 1013.7 |
| 20260508090337 | 61 | 193 | 0.0 | 0.0 | 0.00 | 0.00 | 0.00 | 82 | 1013.7 |
| 20260508085832 | 61 | 194 | 0.9 | 0.9 | 0.00 | 0.00 | 0.00 | 82 | 1013.5 |
| 20260508085329 | 61 | 194 | 0.0 | 0.9 | 0.00 | 0.00 | 0.00 | 82 | 1013.8 |
| 20260508084825 | 61 | 196 | 0.0 | 0.0 | 0.00 | 0.00 | 0.00 | 82 | 1013.8 |
| 20260508084322 | 61 | 196 | 0.9 | 0.9 | 0.00 | 0.00 | 0.00 | 81 | 1013.6 |
| 20260508083820 | 61 | 196 | 0.0 | 0.9 | 0.00 | 0.00 | 0.00 | 81 | 1013.8 |
| 20260508083317 | 61 | 196 | 0.9 | 0.9 | 0.00 | 0.00 | 0.00 | 81 | 1014.1 |
| 20260508082817 | 61 | 196 | 0.9 | 0.9 | 0.00 | 0.00 | 0.00 | 81 | 1013.7 |
| 20260508082315 | 61 | 196 | 0.0 | 0.0 | 0.00 | 0.00 | 0.00 | 81 | 1013.7 |
| 20260508081812 | 61 | 196 | 0.9 | 0.9 | 0.00 | 0.00 | 0.00 | 80 | 1013.8 |
| 20260508081309 | 61 | 196 | 0.0 | 0.0 | 0.00 | 0.00 | 0.00 | 80 | 1014.1 |
| 20260508080806 | 61 | 196 | 0.0 | 0.0 | 0.00 | 0.00 | 0.00 | 80 | 1014.1 |
| 20260508080304 | 61 | 196 | 0.0 | 0.9 | 0.00 | 0.00 | 0.00 | 80 | 1014.0 |
| 20260508075800 | 62 | 196 | 0.0 | 0.0 | 0.00 | 0.00 | 0.00 | 80 | 1014.1 |
| 20260508075257 | 62 | 196 | 0.0 | 0.0 | 0.00 | 0.00 | 0.00 | 80 | 1014.2 |
| 20260508074755 | 62 | 196 | 0.0 | 0.0 | 0.00 | 0.00 | 0.00 | 79 | 1014.4 |
| 20260508074252 | 62 | 196 | 0.0 | 0.0 | 0.00 | 0.00 | 0.00 | 80 | 1014.4 |
| 20260508073749 | 62 | 196 | 0.9 | 0.9 | 0.00 | 0.00 | 0.00 | 79 | 1014.1 |
| 20260508073247 | 62 | 196 | 0.0 | 0.0 | 0.00 | 0.00 | 0.00 | 79 | 1014.5 |
| 20260508072742 | 62 | 196 | 0.0 | 0.0 | 0.00 | 0.00 | 0.00 | 79 | 1014.3 |
| 20260508072239 | 62 | 196 | 0.0 | 0.0 | 0.00 | 0.00 | 0.00 | 79 | 1014.3 |
| 20260508071737 | 62 | 196 | 0.0 | 0.0 | 0.00 | 0.00 | 0.00 | 79 | 1014.3 |
| 20260508071235 | 62 | 196 | 0.0 | 0.0 | 0.00 | 0.00 | 0.00 | 78 | 1014.2 |
| 20260508070732 | 62 | 196 | 0.0 | 0.9 | 0.00 | 0.00 | 0.00 | 78 | 1014.4 |
| 20260508070231 | 62 | 196 | 0.0 | 0.0 | 0.00 | 0.00 | 0.00 | 79 | 1014.1 |
| 20260508065727 | 62 | 196 | 0.9 | 0.9 | 0.00 | 0.00 | 0.00 | 79 | 1014.5 |
| 20260508065226 | 62 | 196 | 0.0 | 0.9 | 0.00 | 0.00 | 0.00 | 79 | 1014.1 |
| 20260508064723 | 62 | 196 | 0.9 | 0.9 | 0.00 | 0.00 | 0.00 | 79 | 1014.2 |
| 20260508064221 | 62 | 195 | 0.9 | 1.7 | 0.00 | 0.00 | 0.00 | 78 | 1014.2 |
| 20260508063718 | 62 | 195 | 0.0 | 0.0 | 0.00 | 0.00 | 0.00 | 78 | 1014.5 |
| 20260508063216 | 62 | 199 | 0.0 | 0.9 | 0.00 | 0.00 | 0.00 | 79 | 1014.0 |
| 20260508062713 | 62 | 204 | 2.6 | 4.3 | 0.00 | 0.00 | 0.00 | 79 | 1014.0 |
| 20260508062210 | 62 | 202 | 0.9 | 1.7 | 0.00 | 0.00 | 0.00 | 79 | 1013.8 |
| 20260508061707 | 62 | 204 | 0.9 | 1.7 | 0.00 | 0.00 | 0.00 | 79 | 1014.1 |
| 20260508061205 | 62 | 203 | 0.0 | 0.0 | 0.00 | 0.00 | 0.00 | 79 | 1014.4 |
| 20260508060702 | 62 | 203 | 0.9 | 0.9 | 0.00 | 0.00 | 0.00 | 78 | 1014.3 |
| 20260508060158 | 62 | 202 | 0.9 | 0.9 | 0.00 | 0.00 | 0.00 | 78 | 1014.7 |
| 20260508055654 | 61 | 202 | 0.0 | 0.0 | 0.00 | 0.00 | 0.00 | 78 | 1014.8 |
| 20260508055151 | 61 | 202 | 0.0 | 0.0 | 0.00 | 0.00 | 0.00 | 79 | 1015.2 |
| 20260508054647 | 61 | 202 | 0.0 | 0.0 | 0.00 | 0.00 | 0.00 | 78 | 1014.6 |
| 20260508054145 | 61 | 202 | 0.0 | 0.0 | 0.00 | 0.00 | 0.00 | 78 | 1015.0 |
| 20260508053642 | 62 | 202 | 0.0 | 0.0 | 0.00 | 0.00 | 0.00 | 78 | 1014.7 |
| 20260508053139 | 62 | 207 | 1.7 | 2.6 | 0.00 | 0.00 | 0.00 | 77 | 1014.5 |
| 20260508052637 | 62 | 213 | 0.0 | 0.0 | 0.00 | 0.00 | 0.00 | 76 | 1014.4 |
| 20260508052134 | 62 | 210 | 1.7 | 2.6 | 0.00 | 0.00 | 0.00 | 76 | 1014.7 |
| 20260508051630 | 62 | 194 | 0.9 | 1.7 | 0.00 | 0.00 | 0.00 | 75 | 1014.9 |
| 20260508051125 | 62 | 188 | 1.7 | 1.7 | 0.00 | 0.00 | 0.00 | 75 | 1014.9 |
| 20260508050621 | 62 | 192 | 0.0 | 0.9 | 0.00 | 0.00 | 0.00 | 75 | 1015.0 |
| 20260508050119 | 62 | 206 | 0.0 | 0.0 | 0.00 | 0.00 | 0.00 | 75 | 1015.2 |
| 20260508045615 | 62 | 190 | 0.9 | 0.9 | 0.00 | 0.00 | 0.00 | 74 | 1015.3 |
| 20260508045113 | 62 | 189 | 1.7 | 1.7 | 0.00 | 0.00 | 0.00 | 75 | 1015.4 |
| 20260508044610 | 62 | 178 | 1.7 | 1.7 | 0.00 | 0.00 | 0.00 | 76 | 1015.3 |
| 20260508044106 | 62 | 191 | 0.9 | 0.9 | 0.00 | 0.00 | 0.00 | 77 | 1014.8 |
| 20260508043603 | 62 | 186 | 2.6 | 4.3 | 0.00 | 0.00 | 0.00 | 77 | 1014.8 |
| 20260508043101 | 62 | 196 | 0.9 | 0.9 | 0.00 | 0.00 | 0.00 | 78 | 1015.0 |
| 20260508042557 | 62 | 187 | 0.0 | 0.0 | 0.00 | 0.00 | 0.00 | 78 | 1014.7 |
| 20260508042054 | 62 | 192 | 1.7 | 1.7 | 0.00 | 0.00 | 0.00 | 78 | 1013.7 |
| 20260508041550 | 62 | 215 | 1.7 | 4.3 | 0.00 | 0.00 | 0.00 | 79 | 1013.5 |
| 20260508041047 | 62 | 215 | 0.9 | 1.7 | 0.00 | 0.00 | 0.00 | 79 | 1013.8 |
| 20260508040544 | 62 | 216 | 0.0 | 0.9 | 0.00 | 0.00 | 0.00 | 79 | 1013.7 |
| 20260508040042 | 62 | 216 | 0.9 | 0.9 | 0.00 | 0.00 | 0.00 | 78 | 1013.7 |
| 20260508035538 | 63 | 215 | 0.9 | 0.9 | 0.00 | 0.00 | 0.00 | 78 | 1014.0 |
| 20260508035036 | 63 | 211 | 1.7 | 1.7 | 0.00 | 0.00 | 0.00 | 78 | 1014.0 |
| 20260508034532 | 63 | 216 | 0.0 | 0.0 | 0.00 | 0.00 | 0.00 | 77 | 1014.1 |
| 20260508034029 | 63 | 209 | 1.7 | 1.7 | 0.00 | 0.00 | 0.00 | 77 | 1014.5 |
| 20260508033527 | 63 | 197 | 0.0 | 0.0 | 0.00 | 0.00 | 0.00 | 78 | 1014.8 |
| 20260508033025 | 63 | 195 | 0.0 | 0.9 | 0.00 | 0.00 | 0.00 | 77 | 1015.1 |
| 20260508032521 | 63 | 194 | 0.9 | 0.9 | 0.00 | 0.00 | 0.00 | 77 | 1015.0 |
| 20260508032019 | 63 | 197 | 0.9 | 0.9 | 0.00 | 0.00 | 0.00 | 76 | 1015.0 |
| 20260508031516 | 63 | 197 | 0.9 | 0.9 | 0.00 | 0.00 | 0.00 | 76 | 1015.0 |
| 20260508031011 | 64 | 196 | 0.0 | 0.0 | 0.00 | 0.00 | 0.00 | 76 | 1015.1 |
| 20260508030509 | 64 | 197 | 0.9 | 0.9 | 0.00 | 0.00 | 0.00 | 75 | 1015.3 |
| 20260508030007 | 64 | 196 | 0.0 | 0.0 | 0.00 | 0.00 | 0.00 | 75 | 1015.6 |
| 20260508025502 | 64 | 197 | 0.0 | 0.0 | 0.00 | 0.00 | 0.00 | 75 | 1015.5 |
| 20260508025000 | 64 | 196 | 0.0 | 0.9 | 0.00 | 0.00 | 0.00 | 74 | 1015.4 |
| 20260508024455 | 64 | 211 | 0.0 | 0.0 | 0.00 | 0.00 | 0.00 | 74 | 1015.7 |
| 20260508023952 | 64 | 211 | 0.0 | 0.0 | 0.00 | 0.00 | 0.00 | 74 | 1015.6 |
| 20260508023449 | 64 | 211 | 0.0 | 0.0 | 0.00 | 0.00 | 0.00 | 74 | 1015.7 |
| 20260508022947 | 63 | 211 | 0.0 | 0.0 | 0.00 | 0.00 | 0.00 | 74 | 1015.6 |
| 20260508022442 | 63 | 211 | 0.0 | 0.9 | 0.00 | 0.00 | 0.00 | 73 | 1015.6 |
| 20260508021939 | 63 | 211 | 0.9 | 0.9 | 0.00 | 0.00 | 0.00 | 73 | 1015.5 |
| 20260508021435 | 63 | 212 | 0.9 | 0.9 | 0.00 | 0.00 | 0.00 | 73 | 1014.8 |
| 20260508020931 | 63 | 216 | 0.0 | 0.0 | 0.00 | 0.00 | 0.00 | 72 | 1013.7 |
| 20260508020429 | 63 | 224 | 0.9 | 1.7 | 0.00 | 0.00 | 0.00 | 72 | 1013.2 |
| 20260508015926 | 63 | 229 | 0.9 | 0.9 | 0.00 | 0.00 | 0.00 | 72 | 1013.2 |
| 20260508015424 | 64 | 225 | 0.9 | 1.7 | 0.00 | 0.00 | 0.00 | 72 | 1013.2 |
| 20260508014920 | 64 | 204 | 0.9 | 0.9 | 0.00 | 0.00 | 0.00 | 70 | 1013.8 |
| 20260508014417 | 64 | 196 | 2.6 | 4.3 | 0.00 | 0.00 | 0.00 | 70 | 1013.8 |
| 20260508013912 | 64 | 206 | 0.0 | 0.0 | 0.00 | 0.00 | 0.00 | 70 | 1013.1 |
| 20260508013409 | 64 | 204 | 0.9 | 1.7 | 0.00 | 0.00 | 0.00 | 70 | 1013.2 |
| 20260508012906 | 64 | 211 | 0.9 | 0.9 | 0.00 | 0.00 | 0.00 | 69 | 1012.8 |
| 20260508012403 | 64 | 219 | 0.9 | 1.7 | 0.00 | 0.00 | 0.00 | 69 | 1012.6 |
| 20260508011901 | 65 | 265 | 1.7 | 2.6 | 0.00 | 0.00 | 0.00 | 69 | 1012.8 |
| 20260508011359 | 65 | 235 | 4.3 | 5.2 | 0.00 | 0.00 | 0.00 | 68 | 1013.6 |
| 20260508010855 | 65 | 187 | 6.1 | 7.8 | 0.00 | 0.00 | 0.00 | 68 | 1013.3 |
| 20260508010353 | 65 | 225 | 3.5 | 4.3 | 0.00 | 0.00 | 0.00 | 67 | 1013.3 |
| 20260508005850 | 65 | 228 | 2.6 | 2.6 | 0.00 | 0.00 | 0.00 | 67 | 1013.6 |
| 20260508005346 | 65 | 237 | 4.3 | 6.1 | 0.00 | 0.00 | 0.00 | 67 | 1013.3 |
| 20260508004843 | 65 | 185 | 4.3 | 6.1 | 0.00 | 0.00 | 0.00 | 67 | 1013.2 |
| 20260508004339 | 66 | 144 | 2.6 | 5.2 | 0.00 | 0.00 | 0.00 | 67 | 1013.7 |
| 20260508003836 | 66 | 160 | 2.6 | 4.3 | 0.00 | 0.00 | 0.00 | 68 | 1013.4 |
| 20260508003333 | 65 | 205 | 1.7 | 2.6 | 0.00 | 0.00 | 0.00 | 67 | 1011.9 |
| 20260508002830 | 66 | 207 | 2.6 | 4.3 | 0.00 | 0.00 | 0.00 | 68 | 1010.7 |
| 20260508002326 | 66 | 236 | 2.6 | 4.3 | 0.00 | 0.00 | 0.00 | 67 | 1011.8 |
| 20260508001822 | 66 | 252 | 2.6 | 2.6 | 0.00 | 0.00 | 0.00 | 66 | 1012.6 |
| 20260508001319 | 66 | 201 | 3.5 | 4.3 | 0.00 | 0.00 | 0.00 | 66 | 1013.1 |
| 20260508000815 | 66 | 216 | 0.9 | 1.7 | 0.00 | 0.00 | 0.00 | 65 | 1013.5 |
| 20260508000312 | 66 | 228 | 0.9 | 0.9 | 0.00 | 0.00 | 0.00 | 65 | 1013.7 |
| 20260507235808 | 66 | 246 | 1.7 | 2.6 | 0.00 | 0.00 | 0.00 | 65 | 1013.8 |
| 20260507235307 | 67 | 217 | 0.0 | 0.9 | 0.00 | 0.00 | 0.00 | 64 | 1014.2 |
| 20260507234803 | 67 | 222 | 1.7 | 1.7 | 0.00 | 0.00 | 0.00 | 63 | 1014.2 |
| 20260507234259 | 67 | 234 | 0.9 | 0.9 | 0.00 | 0.00 | 0.00 | 66 | 1014.2 |
| 20260507233755 | 67 | 233 | 0.9 | 2.6 | 0.00 | 0.00 | 0.00 | 65 | 1014.6 |
| 20260507233254 | 67 | 212 | 3.5 | 4.3 | 0.00 | 0.00 | 0.00 | 64 | 1014.8 |
| 20260507232751 | 67 | 206 | 1.7 | 2.6 | 0.00 | 0.00 | 0.00 | 65 | 1014.9 |
| 20260507232248 | 67 | 216 | 0.9 | 1.7 | 0.00 | 0.00 | 0.00 | 65 | 1014.7 |
| 20260507231744 | 68 | 172 | 1.7 | 4.3 | 0.00 | 0.00 | 0.00 | 66 | 1015.1 |
| 20260507231241 | 68 | 207 | 2.6 | 4.3 | 0.00 | 0.00 | 0.00 | 65 | 1014.9 |
| 20260507230737 | 68 | 192 | 3.5 | 5.2 | 0.00 | 0.00 | 0.00 | 64 | 1015.0 |
| 20260507230235 | 68 | 221 | 1.7 | 1.7 | 0.00 | 0.00 | 0.00 | 64 | 1014.9 |
| 20260507225734 | 68 | 206 | 2.6 | 4.3 | 0.00 | 0.00 | 0.00 | 63 | 1014.9 |
| 20260507225231 | 68 | 205 | 0.9 | 0.9 | 0.00 | 0.00 | 0.00 | 63 | 1015.1 |
| 20260507224727 | 68 | 195 | 4.3 | 7.0 | 0.00 | 0.00 | 0.00 | 62 | 1015.3 |
| 20260507224224 | 69 | 184 | 2.6 | 6.1 | 0.00 | 0.00 | 0.00 | 62 | 1015.1 |
| 20260507223720 | 68 | 204 | 0.0 | 1.7 | 0.00 | 0.00 | 0.00 | 63 | 1015.5 |
| 20260507223217 | 68 | 201 | 2.6 | 2.6 | 0.00 | 0.00 | 0.00 | 64 | 1015.4 |
| 20260507222714 | 68 | 181 | 2.6 | 2.6 | 0.00 | 0.00 | 0.00 | 64 | 1015.4 |
| 20260507222210 | 68 | 221 | 4.3 | 5.2 | 0.00 | 0.00 | 0.00 | 63 | 1015.3 |
| 20260507221707 | 68 | 194 | 0.9 | 0.9 | 0.00 | 0.00 | 0.00 | 64 | 1015.3 |
| 20260507221203 | 68 | 206 | 0.9 | 1.7 | 0.00 | 0.00 | 0.00 | 66 | 1015.1 |
| 20260507220700 | 68 | 187 | 1.7 | 1.7 | 0.00 | 0.00 | 0.00 | 65 | 1015.3 |
| 20260507220158 | 68 | 196 | 1.7 | 1.7 | 0.00 | 0.00 | 0.00 | 66 | 1015.5 |
| 20260507215654 | 68 | 210 | 4.3 | 5.2 | 0.00 | 0.00 | 0.00 | 65 | 1015.4 |
| 20260507215152 | 67 | 207 | 3.5 | 5.2 | 0.00 | 0.00 | 0.00 | 64 | 1015.4 |
| 20260507214649 | 68 | 213 | 1.7 | 1.7 | 0.00 | 0.00 | 0.00 | 65 | 1015.4 |
| 20260507214145 | 68 | 208 | 4.3 | 5.2 | 0.00 | 0.00 | 0.00 | 62 | 1015.8 |
| 20260507213641 | 68 | 197 | 1.7 | 1.7 | 0.00 | 0.00 | 0.00 | 63 | 1015.9 |
| 20260507213138 | 68 | 191 | 0.9 | 0.9 | 0.00 | 0.00 | 0.00 | 65 | 1015.5 |
| 20260507212634 | 68 | 195 | 1.7 | 1.7 | 0.00 | 0.00 | 0.00 | 66 | 1015.5 |
| 20260507212131 | 68 | 194 | 6.1 | 7.0 | 0.00 | 0.00 | 0.00 | 64 | 1015.3 |
| 20260507211628 | 67 | 192 | 2.6 | 2.6 | 0.00 | 0.00 | 0.00 | 66 | 1015.5 |
| 20260507211124 | 67 | 216 | 1.7 | 2.6 | 0.00 | 0.00 | 0.00 | 66 | 1015.9 |
| 20260507210622 | 67 | 178 | 6.1 | 7.8 | 0.00 | 0.00 | 0.00 | 65 | 1016.2 |
| 20260507210118 | 67 | 183 | 6.1 | 7.0 | 0.00 | 0.00 | 0.00 | 65 | 1015.9 |
| 20260507205615 | 67 | 241 | 1.7 | 1.7 | 0.00 | 0.00 | 0.00 | 66 | 1015.3 |
| 20260507205111 | 68 | 202 | 1.7 | 4.3 | 0.00 | 0.00 | 0.00 | 66 | 1015.4 |
| 20260507204608 | 67 | 200 | 3.5 | 5.2 | 0.00 | 0.00 | 0.00 | 65 | 1015.5 |
| 20260507204105 | 68 | 189 | 3.5 | 4.3 | 0.00 | 0.00 | 0.00 | 65 | 1015.7 |
| 20260507203603 | 67 | 184 | 2.6 | 2.6 | 0.00 | 0.00 | 0.00 | 67 | 1015.8 |
| 20260507203100 | 67 | 233 | 3.5 | 4.3 | 0.00 | 0.00 | 0.00 | 66 | 1016.1 |
| 20260507202555 | 68 | 196 | 0.9 | 0.9 | 0.00 | 0.00 | 0.00 | 67 | 1015.9 |
| 20260507202052 | 67 | 211 | 4.3 | 7.8 | 0.00 | 0.00 | 0.00 | 66 | 1015.3 |
| 20260507201547 | 67 | 207 | 8.7 | 13.0 | 0.00 | 0.00 | 0.00 | 65 | 1015.3 |
| 20260507201044 | 67 | 201 | 5.2 | 6.1 | 0.00 | 0.00 | 0.00 | 66 | 1015.0 |
| 20260507200540 | 66 | 188 | 6.1 | 8.7 | 0.00 | 0.00 | 0.00 | 67 | 1015.3 |
| 20260507200036 | 67 | 228 | 8.7 | 11.3 | 0.00 | 0.00 | 0.00 | 68 | 1015.5 |
| 20260507195533 | 68 | 219 | 5.2 | 7.8 | 0.00 | 0.00 | 0.00 | 68 | 1015.6 |
| 20260507195031 | 67 | 209 | 2.6 | 4.3 | 0.00 | 0.00 | 0.00 | 71 | 1016.0 |
| 20260507194527 | 66 | 207 | 2.6 | 2.6 | 0.00 | 0.00 | 0.00 | 71 | 1016.0 |
| 20260507194023 | 66 | 204 | 5.2 | 7.8 | 0.00 | 0.00 | 0.00 | 71 | 1016.0 |
| 20260507193520 | 65 | 241 | 6.1 | 7.8 | 0.00 | 0.00 | 0.00 | 71 | 1016.2 |
| 20260507193017 | 65 | 209 | 4.3 | 5.2 | 0.00 | 0.00 | 0.00 | 72 | 1016.4 |
| 20260507192513 | 67 | 228 | 5.2 | 6.1 | 0.00 | 0.00 | 0.00 | 72 | 1016.3 |
| 20260507192010 | 66 | 227 | 4.3 | 6.1 | 0.00 | 0.00 | 0.00 | 72 | 1016.1 |
| 20260507191506 | 66 | 202 | 4.3 | 6.1 | 0.00 | 0.00 | 0.00 | 73 | 1016.1 |
| 20260507191003 | 65 | 212 | 2.6 | 2.6 | 0.00 | 0.00 | 0.00 | 76 | 1016.1 |
| 20260507190500 | 66 | 187 | 3.5 | 5.2 | 0.00 | 0.00 | 0.00 | 75 | 1016.5 |
| 20260507185959 | 66 | 194 | 4.3 | 7.8 | 0.00 | 0.00 | 0.00 | 75 | 1015.9 |
| 20260507185456 | 64 | 218 | 3.5 | 5.2 | 0.00 | 0.00 | 0.00 | 80 | 1015.9 |
| 20260507184953 | 63 | 194 | 3.5 | 5.2 | 0.00 | 0.00 | 0.00 | 82 | 1016.4 |
| 20260507184451 | 62 | 218 | 1.7 | 2.6 | 0.00 | 0.00 | 0.00 | 85 | 1016.4 |
| 20260507183949 | 61 | 212 | 2.6 | 2.6 | 0.00 | 0.00 | 0.00 | 86 | 1016.5 |
| 20260507183445 | 61 | 209 | 3.5 | 5.2 | 0.00 | 0.00 | 0.00 | 89 | 1016.5 |
| 20260507182942 | 61 | 231 | 1.7 | 2.6 | 0.00 | 0.00 | 0.00 | 89 | 1016.9 |
| 20260507182438 | 60 | 213 | 4.3 | 5.2 | 0.00 | 0.00 | 0.00 | 88 | 1017.2 |
| 20260507181934 | 60 | 206 | 2.6 | 4.3 | 0.00 | 0.00 | 0.00 | 88 | 1017.3 |
| 20260507181430 | 60 | 207 | 2.6 | 2.6 | 0.00 | 0.00 | 0.00 | 89 | 1017.3 |
| 20260507180927 | 60 | 200 | 2.6 | 4.3 | 0.00 | 0.00 | 0.00 | 87 | 1017.8 |
| 20260507180424 | 61 | 198 | 2.6 | 5.2 | 0.00 | 0.00 | 0.00 | 85 | 1017.4 |
| 20260507175920 | 62 | 204 | 1.7 | 1.7 | 0.00 | 0.00 | 0.00 | 83 | 1017.3 |
| 20260507175417 | 62 | 180 | 1.7 | 1.7 | 0.00 | 0.00 | 0.00 | 82 | 1017.6 |
| 20260507174915 | 62 | 189 | 1.7 | 1.7 | 0.00 | 0.00 | 0.00 | 82 | 1017.6 |
| 20260507174412 | 61 | 210 | 3.5 | 5.2 | 0.00 | 0.00 | 0.00 | 82 | 1017.0 |
| 20260507173909 | 61 | 194 | 2.6 | 5.2 | 0.00 | 0.00 | 0.00 | 82 | 1017.1 |
| 20260507173406 | 61 | 188 | 3.5 | 5.2 | 0.00 | 0.00 | 0.00 | 83 | 1017.1 |
| 20260507172903 | 61 | 221 | 3.5 | 5.2 | 0.00 | 0.00 | 0.00 | 83 | 1017.2 |
| 20260507172359 | 61 | 212 | 4.3 | 6.1 | 0.00 | 0.00 | 0.00 | 83 | 1017.1 |
| 20260507171855 | 61 | 202 | 1.7 | 1.7 | 0.00 | 0.00 | 0.00 | 82 | 1017.7 |
| 20260507171352 | 61 | 215 | 3.5 | 6.1 | 0.00 | 0.00 | 0.00 | 83 | 1017.0 |
| 20260507170849 | 60 | 216 | 2.6 | 5.2 | 0.00 | 0.00 | 0.00 | 84 | 1017.2 |
| 20260507170345 | 60 | 207 | 4.3 | 6.1 | 0.00 | 0.00 | 0.00 | 84 | 1017.3 |
| 20260507165842 | 60 | 217 | 3.5 | 5.2 | 0.00 | 0.00 | 0.00 | 84 | 1017.4 |
| 20260507165337 | 60 | 205 | 5.2 | 7.0 | 0.00 | 0.00 | 0.00 | 85 | 1017.0 |
| 20260507164834 | 60 | 216 | 3.5 | 5.2 | 0.00 | 0.00 | 0.00 | 85 | 1017.0 |
| 20260507164331 | 59 | 213 | 3.5 | 6.1 | 0.00 | 0.00 | 0.00 | 86 | 1017.2 |
| 20260507163828 | 59 | 233 | 6.1 | 8.7 | 0.00 | 0.00 | 0.00 | 86 | 1017.7 |
| 20260507163326 | 59 | 190 | 5.2 | 7.0 | 0.00 | 0.00 | 0.00 | 86 | 1017.9 |
| 20260507162822 | 59 | 206 | 2.6 | 4.3 | 0.00 | 0.00 | 0.00 | 86 | 1017.7 |
| 20260507162317 | 59 | 203 | 2.6 | 4.3 | 0.00 | 0.00 | 0.00 | 87 | 1017.8 |
| 20260507161815 | 59 | 225 | 0.9 | 1.7 | 0.00 | 0.00 | 0.00 | 87 | 1017.4 |
| 20260507161311 | 58 | 232 | 0.9 | 2.6 | 0.00 | 0.00 | 0.00 | 87 | 1017.5 |
| 20260507160808 | 58 | 166 | 4.3 | 7.0 | 0.00 | 0.00 | 0.00 | 88 | 1017.7 |
| 20260507160304 | 58 | 211 | 4.3 | 7.0 | 0.00 | 0.00 | 0.00 | 88 | 1017.7 |
| 20260507155800 | 58 | 207 | 2.6 | 2.6 | 0.00 | 0.00 | 0.00 | 88 | 1017.5 |
| 20260507155256 | 58 | 189 | 5.2 | 7.8 | 0.00 | 0.00 | 0.00 | 88 | 1017.5 |
| 20260507154753 | 58 | 208 | 0.9 | 0.9 | 0.00 | 0.00 | 0.00 | 89 | 1017.9 |
| 20260507154250 | 58 | 222 | 4.3 | 6.1 | 0.00 | 0.00 | 0.00 | 89 | 1017.5 |
| 20260507153746 | 58 | 185 | 7.8 | 11.3 | 0.00 | 0.00 | 0.00 | 89 | 1017.1 |
| 20260507153243 | 58 | 204 | 4.3 | 5.2 | 0.00 | 0.00 | 0.00 | 89 | 1017.3 |
| 20260507152740 | 57 | 182 | 2.6 | 4.3 | 0.00 | 0.00 | 0.00 | 90 | 1017.3 |
| 20260507152236 | 57 | 191 | 3.5 | 5.2 | 0.00 | 0.00 | 0.00 | 90 | 1017.5 |
| 20260507151732 | 57 | 207 | 0.9 | 1.7 | 0.00 | 0.00 | 0.00 | 90 | 1017.9 |
| 20260507151229 | 57 | 211 | 5.2 | 7.0 | 0.00 | 0.00 | 0.00 | 90 | 1017.5 |
| 20260507150726 | 57 | 205 | 4.3 | 5.2 | 0.00 | 0.00 | 0.00 | 90 | 1017.6 |
| 20260507150222 | 57 | 213 | 1.7 | 1.7 | 0.00 | 0.00 | 0.00 | 90 | 1017.5 |
| 20260507145718 | 57 | 218 | 3.5 | 5.2 | 0.00 | 0.00 | 0.00 | 90 | 1017.4 |
| 20260507145215 | 57 | 192 | 5.2 | 7.8 | 0.00 | 0.00 | 0.00 | 90 | 1017.2 |
| 20260507144712 | 57 | 205 | 2.6 | 2.6 | 0.00 | 0.00 | 0.00 | 91 | 1017.3 |
| 20260507144210 | 57 | 138 | 6.1 | 8.7 | 0.00 | 0.00 | 0.00 | 92 | 1017.1 |
| 20260507143706 | 57 | 197 | 4.3 | 6.1 | 0.00 | 0.00 | 0.00 | 93 | 1017.1 |
| 20260507143203 | 56 | 216 | 2.6 | 4.3 | 0.00 | 0.00 | 0.00 | 93 | 1016.9 |
| 20260507142659 | 56 | 225 | 4.3 | 5.2 | 0.00 | 0.00 | 0.00 | 93 | 1016.9 |
| 20260507142156 | 56 | 172 | 1.7 | 2.6 | 0.00 | 0.00 | 0.00 | 93 | 1017.5 |
| 20260507141652 | 56 | 207 | 1.7 | 1.7 | 0.00 | 0.00 | 0.00 | 93 | 1017.6 |
| 20260507141149 | 56 | 182 | 4.3 | 7.0 | 0.00 | 0.00 | 0.00 | 94 | 1017.8 |
| 20260507140645 | 56 | 180 | 4.3 | 6.1 | 0.00 | 0.00 | 0.00 | 94 | 1017.8 |
| 20260507140143 | 56 | 189 | 5.2 | 7.0 | 0.00 | 0.00 | 0.00 | 95 | 1017.9 |
| 20260507135640 | 56 | 225 | 2.6 | 2.6 | 0.00 | 0.00 | 0.00 | 95 | 1017.9 |
| 20260507135137 | 56 | 186 | 6.1 | 7.8 | 0.00 | 0.00 | 0.00 | 95 | 1017.7 |
| 20260507134633 | 57 | 194 | 1.7 | 1.7 | 0.00 | 0.00 | 0.00 | 95 | 1017.8 |
| 20260507134130 | 57 | 197 | 0.9 | 1.7 | 0.00 | 0.00 | 0.00 | 95 | 1017.9 |
| 20260507133626 | 57 | 201 | 1.7 | 1.7 | 0.00 | 0.00 | 0.00 | 95 | 1017.8 |
| 20260507133123 | 57 | 226 | 2.6 | 4.3 | 0.00 | 0.00 | 0.00 | 95 | 1017.4 |
| 20260507132620 | 57 | 201 | 1.7 | 1.7 | 0.00 | 0.00 | 0.00 | 94 | 1017.1 |
| 20260507132116 | 57 | 203 | 2.6 | 4.3 | 0.00 | 0.00 | 0.00 | 93 | 1017.2 |
| 20260507131613 | 57 | 202 | 4.3 | 5.2 | 0.00 | 0.00 | 0.00 | 93 | 1017.5 |
| 20260507131111 | 57 | 187 | 2.6 | 4.3 | 0.00 | 0.00 | 0.00 | 93 | 1017.5 |
| 20260507130607 | 57 | 209 | 1.7 | 2.6 | 0.00 | 0.00 | 0.00 | 93 | 1017.3 |
| 20260507130106 | 57 | 213 | 3.5 | 4.3 | 0.00 | 0.00 | 0.00 | 93 | 1017.3 |
| 20260507125604 | 57 | 196 | 0.9 | 0.9 | 0.00 | 0.00 | 0.00 | 93 | 1017.1 |
| 20260507125101 | 58 | 214 | 1.7 | 1.7 | 0.00 | 0.00 | 0.00 | 93 | 1016.9 |
| 20260507124557 | 58 | 200 | 2.6 | 4.3 | 0.00 | 0.00 | 0.00 | 92 | 1017.3 |
| 20260507124055 | 58 | 200 | 2.6 | 2.6 | 0.00 | 0.00 | 0.00 | 92 | 1017.0 |
| 20260507123553 | 58 | 172 | 1.7 | 2.6 | 0.00 | 0.00 | 0.00 | 91 | 1016.6 |
| 20260507123050 | 58 | 207 | 2.6 | 4.3 | 0.00 | 0.00 | 0.00 | 91 | 1016.9 |
| 20260507122545 | 58 | 192 | 1.7 | 4.3 | 0.00 | 0.00 | 0.00 | 91 | 1016.4 |
| 20260507122041 | 58 | 213 | 4.3 | 8.7 | 0.00 | 0.00 | 0.00 | 91 | 1016.2 |
| 20260507121537 | 58 | 202 | 4.3 | 7.0 | 0.00 | 0.00 | 0.00 | 91 | 1016.1 |
| 20260507121033 | 58 | 129 | 6.1 | 9.6 | 0.00 | 0.00 | 0.00 | 91 | 1016.3 |
| 20260507120529 | 58 | 188 | 8.7 | 11.3 | 0.00 | 0.00 | 0.00 | 91 | 1015.8 |
| 20260507120026 | 58 | 187 | 6.1 | 12.2 | 0.00 | 0.00 | 0.00 | 91 | 1015.7 |
| 20260507115522 | 58 | 189 | 7.8 | 11.3 | 0.00 | 0.00 | 0.00 | 90 | 1015.7 |
| 20260507115018 | 58 | 188 | 6.1 | 8.7 | 0.00 | 0.00 | 0.00 | 90 | 1015.6 |
| 20260507114514 | 58 | 193 | 9.6 | 12.2 | 0.00 | 0.00 | 0.00 | 90 | 1015.6 |
| 20260507114012 | 58 | 202 | 1.7 | 1.7 | 0.00 | 0.00 | 0.00 | 90 | 1015.8 |
| 20260507113509 | 58 | 217 | 6.1 | 7.0 | 0.00 | 0.00 | 0.00 | 90 | 1015.3 |
| 20260507113006 | 58 | 171 | 7.8 | 11.3 | 0.00 | 0.00 | 0.00 | 90 | 1015.5 |
| 20260507112504 | 58 | 200 | 0.9 | 1.7 | 0.00 | 0.00 | 0.00 | 90 | 1015.3 |
| 20260507112000 | 59 | 206 | 4.3 | 6.1 | 0.00 | 0.00 | 0.00 | 89 | 1015.6 |
| 20260507111459 | 59 | 187 | 2.6 | 4.3 | 0.00 | 0.00 | 0.00 | 89 | 1015.5 |
| 20260507110954 | 59 | 222 | 4.3 | 7.0 | 0.00 | 0.00 | 0.00 | 89 | 1015.0 |
| 20260507110450 | 59 | 193 | 4.3 | 6.1 | 0.00 | 0.00 | 0.00 | 89 | 1015.4 |
| 20260507105947 | 59 | 193 | 6.1 | 7.8 | 0.00 | 0.00 | 0.00 | 88 | 1015.2 |
| 20260507105444 | 59 | 198 | 0.9 | 1.7 | 0.00 | 0.00 | 0.00 | 88 | 1015.2 |
| 20260507104940 | 59 | 212 | 4.3 | 6.1 | 0.00 | 0.00 | 0.00 | 88 | 1015.5 |
| 20260507104438 | 59 | 212 | 2.6 | 4.3 | 0.00 | 0.00 | 0.00 | 88 | 1015.5 |
| 20260507103933 | 59 | 200 | 6.1 | 7.8 | 0.00 | 0.00 | 0.00 | 88 | 1015.4 |
| 20260507103430 | 59 | 192 | 4.3 | 6.1 | 0.00 | 0.00 | 0.00 | 88 | 1015.4 |
| 20260507102926 | 59 | 181 | 3.5 | 5.2 | 0.00 | 0.00 | 0.00 | 88 | 1015.1 |
| 20260507102423 | 59 | 208 | 0.9 | 1.7 | 0.00 | 0.00 | 0.00 | 88 | 1015.3 |
| 20260507101919 | 59 | 217 | 1.7 | 1.7 | 0.00 | 0.00 | 0.00 | 88 | 1015.1 |
| 20260507101414 | 59 | 211 | 3.5 | 5.2 | 0.00 | 0.00 | 0.00 | 87 | 1015.3 |
| 20260507100911 | 59 | 218 | 2.6 | 5.2 | 0.00 | 0.00 | 0.00 | 87 | 1015.1 |
| 20260507100409 | 59 | 219 | 4.3 | 7.8 | 0.00 | 0.00 | 0.00 | 87 | 1015.1 |
| 20260507095907 | 59 | 185 | 1.7 | 1.7 | 0.00 | 0.00 | 0.00 | 87 | 1015.0 |
| 20260507095403 | 60 | 262 | 0.9 | 4.3 | 0.00 | 0.00 | 0.00 | 87 | 1015.0 |